sensor_id;sensor_type;location;lat;lon;timestamp;temperature;humidity
6822;DHT22;3449;48.728;8.968;2023-04-24T00:01:59;9.60;99.90
6822;DHT22;3449;48.728;8.968;2023-04-24T00:04:26;9.60;99.90
6822;DHT22;3449;48.728;8.968;2023-04-24T00:06:54;9.60;99.90
6822;DHT22;3449;48.728;8.968;2023-04-24T00:09:22;9.60;99.90
6822;DHT22;3449;48.728;8.968;2023-04-24T00:11:49;9.60;99.90
6822;DHT22;3449;48.728;8.968;2023-04-24T00:14:16;9.70;99.90
6822;DHT22;3449;48.728;8.968;2023-04-24T00:16:43;9.70;99.90
6822;DHT22;3449;48.728;8.968;2023-04-24T00:19:10;9.70;99.90
6822;DHT22;3449;48.728;8.968;2023-04-24T00:21:38;9.70;99.90
6822;DHT22;3449;48.728;8.968;2023-04-24T00:24:06;9.70;99.90
6822;DHT22;3449;48.728;8.968;2023-04-24T00:26:34;9.70;99.90
6822;DHT22;3449;48.728;8.968;2023-04-24T00:29:01;9.70;99.90
6822;DHT22;3449;48.728;8.968;2023-04-24T00:31:28;9.70;99.90
6822;DHT22;3449;48.728;8.968;2023-04-24T00:33:55;9.80;99.90
6822;DHT22;3449;48.728;8.968;2023-04-24T00:36:22;9.80;99.90
6822;DHT22;3449;48.728;8.968;2023-04-24T00:38:48;9.80;99.90
6822;DHT22;3449;48.728;8.968;2023-04-24T00:41:17;9.90;99.90
6822;DHT22;3449;48.728;8.968;2023-04-24T00:43:44;9.90;99.90
6822;DHT22;3449;48.728;8.968;2023-04-24T00:46:12;9.90;99.90
6822;DHT22;3449;48.728;8.968;2023-04-24T00:48:39;9.90;99.90
6822;DHT22;3449;48.728;8.968;2023-04-24T00:51:06;9.90;99.90
6822;DHT22;3449;48.728;8.968;2023-04-24T00:53:33;9.90;99.90
6822;DHT22;3449;48.728;8.968;2023-04-24T00:56:00;9.90;99.90
6822;DHT22;3449;48.728;8.968;2023-04-24T00:58:28;9.90;99.90
6822;DHT22;3449;48.728;8.968;2023-04-24T01:00:56;9.90;99.90
6822;DHT22;3449;48.728;8.968;2023-04-24T01:03:26;9.90;99.90
6822;DHT22;3449;48.728;8.968;2023-04-24T01:05:54;9.90;99.90
6822;DHT22;3449;48.728;8.968;2023-04-24T01:08:22;9.90;99.90
6822;DHT22;3449;48.728;8.968;2023-04-24T01:10:51;9.90;99.90
6822;DHT22;3449;48.728;8.968;2023-04-24T01:13:19;9.90;99.90
6822;DHT22;3449;48.728;8.968;2023-04-24T01:15:48;9.90;99.90
6822;DHT22;3449;48.728;8.968;2023-04-24T01:18:15;9.90;99.90
6822;DHT22;3449;48.728;8.968;2023-04-24T01:20:43;9.90;99.90
6822;DHT22;3449;48.728;8.968;2023-04-24T01:23:13;9.80;99.90
6822;DHT22;3449;48.728;8.968;2023-04-24T01:25:40;9.80;99.90
6822;DHT22;3449;48.728;8.968;2023-04-24T01:28:08;9.80;99.90
6822;DHT22;3449;48.728;8.968;2023-04-24T01:30:35;9.70;99.90
6822;DHT22;3449;48.728;8.968;2023-04-24T01:33:02;9.70;99.90
6822;DHT22;3449;48.728;8.968;2023-04-24T01:35:29;9.70;99.90
6822;DHT22;3449;48.728;8.968;2023-04-24T01:37:56;9.70;99.90
6822;DHT22;3449;48.728;8.968;2023-04-24T01:40:24;9.60;99.90
6822;DHT22;3449;48.728;8.968;2023-04-24T01:42:51;9.60;99.90
6822;DHT22;3449;48.728;8.968;2023-04-24T01:45:19;9.60;99.90
6822;DHT22;3449;48.728;8.968;2023-04-24T01:47:45;9.60;99.90
6822;DHT22;3449;48.728;8.968;2023-04-24T01:50:14;9.60;99.90
6822;DHT22;3449;48.728;8.968;2023-04-24T01:52:41;9.60;99.90
6822;DHT22;3449;48.728;8.968;2023-04-24T01:55:09;9.60;99.90
6822;DHT22;3449;48.728;8.968;2023-04-24T01:57:38;9.60;99.90
6822;DHT22;3449;48.728;8.968;2023-04-24T02:00:06;9.60;99.90
6822;DHT22;3449;48.728;8.968;2023-04-24T02:02:33;9.50;99.90
6822;DHT22;3449;48.728;8.968;2023-04-24T02:05:00;9.50;99.90
6822;DHT22;3449;48.728;8.968;2023-04-24T02:07:28;9.50;99.90
6822;DHT22;3449;48.728;8.968;2023-04-24T02:09:55;9.50;99.90
6822;DHT22;3449;48.728;8.968;2023-04-24T02:12:22;9.50;99.90
6822;DHT22;3449;48.728;8.968;2023-04-24T02:14:50;9.50;99.90
6822;DHT22;3449;48.728;8.968;2023-04-24T02:17:17;9.50;99.90
6822;DHT22;3449;48.728;8.968;2023-04-24T02:19:44;9.50;99.90
6822;DHT22;3449;48.728;8.968;2023-04-24T02:22:11;9.50;99.90
6822;DHT22;3449;48.728;8.968;2023-04-24T02:24:38;9.50;99.90
6822;DHT22;3449;48.728;8.968;2023-04-24T02:27:05;9.50;99.90
6822;DHT22;3449;48.728;8.968;2023-04-24T02:29:32;9.40;99.90
6822;DHT22;3449;48.728;8.968;2023-04-24T02:32:01;9.40;99.90
6822;DHT22;3449;48.728;8.968;2023-04-24T02:34:28;9.50;99.90
6822;DHT22;3449;48.728;8.968;2023-04-24T02:36:54;9.50;99.90
6822;DHT22;3449;48.728;8.968;2023-04-24T02:39:21;9.40;99.90
6822;DHT22;3449;48.728;8.968;2023-04-24T02:41:48;9.40;99.90
6822;DHT22;3449;48.728;8.968;2023-04-24T02:44:15;9.40;99.90
6822;DHT22;3449;48.728;8.968;2023-04-24T02:46:42;9.40;99.90
6822;DHT22;3449;48.728;8.968;2023-04-24T02:49:11;9.40;99.90
6822;DHT22;3449;48.728;8.968;2023-04-24T02:51:38;9.40;99.90
6822;DHT22;3449;48.728;8.968;2023-04-24T02:54:07;9.40;99.90
6822;DHT22;3449;48.728;8.968;2023-04-24T02:56:34;9.50;99.90
6822;DHT22;3449;48.728;8.968;2023-04-24T02:59:01;9.50;99.90
6822;DHT22;3449;48.728;8.968;2023-04-24T03:01:28;9.40;99.90
6822;DHT22;3449;48.728;8.968;2023-04-24T03:03:55;9.30;99.90
6822;DHT22;3449;48.728;8.968;2023-04-24T03:06:23;9.30;99.90
6822;DHT22;3449;48.728;8.968;2023-04-24T03:08:50;9.30;99.90
6822;DHT22;3449;48.728;8.968;2023-04-24T03:11:17;9.30;99.90
6822;DHT22;3449;48.728;8.968;2023-04-24T03:13:44;9.30;99.90
6822;DHT22;3449;48.728;8.968;2023-04-24T03:16:10;9.20;99.90
6822;DHT22;3449;48.728;8.968;2023-04-24T03:18:37;9.20;99.90
6822;DHT22;3449;48.728;8.968;2023-04-24T03:21:04;9.10;99.90
6822;DHT22;3449;48.728;8.968;2023-04-24T03:23:32;9.10;99.90
6822;DHT22;3449;48.728;8.968;2023-04-24T03:25:59;9.10;99.90
6822;DHT22;3449;48.728;8.968;2023-04-24T03:28:27;9.10;99.90
6822;DHT22;3449;48.728;8.968;2023-04-24T03:30:54;9.10;99.90
6822;DHT22;3449;48.728;8.968;2023-04-24T03:33:21;9.10;99.90
6822;DHT22;3449;48.728;8.968;2023-04-24T03:35:48;9.10;99.90
6822;DHT22;3449;48.728;8.968;2023-04-24T03:38:15;9.10;99.90
6822;DHT22;3449;48.728;8.968;2023-04-24T03:40:43;9.00;99.90
6822;DHT22;3449;48.728;8.968;2023-04-24T03:43:10;9.00;99.90
6822;DHT22;3449;48.728;8.968;2023-04-24T03:45:37;9.00;99.90
6822;DHT22;3449;48.728;8.968;2023-04-24T03:48:04;8.90;99.90
6822;DHT22;3449;48.728;8.968;2023-04-24T03:50:31;8.90;99.90
6822;DHT22;3449;48.728;8.968;2023-04-24T03:52:57;8.90;99.90
6822;DHT22;3449;48.728;8.968;2023-04-24T03:55:24;8.90;99.90
6822;DHT22;3449;48.728;8.968;2023-04-24T03:57:52;8.80;99.90
6822;DHT22;3449;48.728;8.968;2023-04-24T04:00:19;8.80;99.90
6822;DHT22;3449;48.728;8.968;2023-04-24T04:02:46;8.80;99.90
6822;DHT22;3449;48.728;8.968;2023-04-24T04:05:13;8.80;99.90
6822;DHT22;3449;48.728;8.968;2023-04-24T04:07:40;8.80;99.90
6822;DHT22;3449;48.728;8.968;2023-04-24T04:10:08;8.80;99.90
6822;DHT22;3449;48.728;8.968;2023-04-24T04:12:35;8.90;99.90
6822;DHT22;3449;48.728;8.968;2023-04-24T04:15:03;8.90;99.90
6822;DHT22;3449;48.728;8.968;2023-04-24T04:17:31;9.00;99.90
6822;DHT22;3449;48.728;8.968;2023-04-24T04:19:58;8.90;99.90
6822;DHT22;3449;48.728;8.968;2023-04-24T04:22:25;8.60;99.90
6822;DHT22;3449;48.728;8.968;2023-04-24T04:24:52;8.40;99.90
6822;DHT22;3449;48.728;8.968;2023-04-24T04:27:19;8.20;99.90
6822;DHT22;3449;48.728;8.968;2023-04-24T04:29:46;8.10;99.90
6822;DHT22;3449;48.728;8.968;2023-04-24T04:32:15;8.00;99.90
6822;DHT22;3449;48.728;8.968;2023-04-24T04:34:42;8.00;99.90
6822;DHT22;3449;48.728;8.968;2023-04-24T04:37:10;8.00;99.90
6822;DHT22;3449;48.728;8.968;2023-04-24T04:39:38;7.90;99.90
6822;DHT22;3449;48.728;8.968;2023-04-24T04:42:04;7.90;99.90
6822;DHT22;3449;48.728;8.968;2023-04-24T04:44:32;7.90;99.90
6822;DHT22;3449;48.728;8.968;2023-04-24T04:47:01;7.90;99.90
6822;DHT22;3449;48.728;8.968;2023-04-24T04:49:32;7.90;99.90
6822;DHT22;3449;48.728;8.968;2023-04-24T04:52:00;7.80;99.90
6822;DHT22;3449;48.728;8.968;2023-04-24T04:54:26;7.80;99.90
6822;DHT22;3449;48.728;8.968;2023-04-24T04:56:53;7.80;99.90
6822;DHT22;3449;48.728;8.968;2023-04-24T04:59:21;7.80;99.90
6822;DHT22;3449;48.728;8.968;2023-04-24T05:01:47;7.80;99.90
6822;DHT22;3449;48.728;8.968;2023-04-24T05:04:15;7.80;99.90
6822;DHT22;3449;48.728;8.968;2023-04-24T05:06:43;7.80;99.90
6822;DHT22;3449;48.728;8.968;2023-04-24T05:09:10;7.90;99.90
6822;DHT22;3449;48.728;8.968;2023-04-24T05:11:37;7.90;99.90
6822;DHT22;3449;48.728;8.968;2023-04-24T05:14:04;7.90;99.90
6822;DHT22;3449;48.728;8.968;2023-04-24T05:16:30;7.90;99.90
6822;DHT22;3449;48.728;8.968;2023-04-24T05:18:57;8.00;99.90
6822;DHT22;3449;48.728;8.968;2023-04-24T05:21:24;8.00;99.90
6822;DHT22;3449;48.728;8.968;2023-04-24T05:23:53;8.00;99.90
6822;DHT22;3449;48.728;8.968;2023-04-24T05:26:20;8.00;99.90
6822;DHT22;3449;48.728;8.968;2023-04-24T05:28:48;8.00;99.90
6822;DHT22;3449;48.728;8.968;2023-04-24T05:31:15;8.00;99.90
6822;DHT22;3449;48.728;8.968;2023-04-24T05:33:43;7.90;99.90
6822;DHT22;3449;48.728;8.968;2023-04-24T05:36:10;7.90;99.90
6822;DHT22;3449;48.728;8.968;2023-04-24T05:38:36;7.90;99.90
6822;DHT22;3449;48.728;8.968;2023-04-24T05:41:05;8.00;99.90
6822;DHT22;3449;48.728;8.968;2023-04-24T05:43:32;8.00;99.90
6822;DHT22;3449;48.728;8.968;2023-04-24T05:45:59;8.00;99.90
6822;DHT22;3449;48.728;8.968;2023-04-24T05:48:26;7.90;99.90
6822;DHT22;3449;48.728;8.968;2023-04-24T05:50:52;7.90;99.90
6822;DHT22;3449;48.728;8.968;2023-04-24T05:53:19;7.90;99.90
6822;DHT22;3449;48.728;8.968;2023-04-24T05:55:47;7.90;99.90
6822;DHT22;3449;48.728;8.968;2023-04-24T05:58:15;7.90;99.90
6822;DHT22;3449;48.728;8.968;2023-04-24T06:00:42;7.90;99.90
6822;DHT22;3449;48.728;8.968;2023-04-24T06:03:11;7.90;99.90
6822;DHT22;3449;48.728;8.968;2023-04-24T06:05:38;8.00;99.90
6822;DHT22;3449;48.728;8.968;2023-04-24T06:08:05;8.10;99.90
6822;DHT22;3449;48.728;8.968;2023-04-24T06:10:32;8.30;99.90
6822;DHT22;3449;48.728;8.968;2023-04-24T06:12:59;8.50;99.90
6822;DHT22;3449;48.728;8.968;2023-04-24T06:15:29;8.70;99.90
6822;DHT22;3449;48.728;8.968;2023-04-24T06:17:56;8.90;99.90
6822;DHT22;3449;48.728;8.968;2023-04-24T06:20:24;9.10;99.90
6822;DHT22;3449;48.728;8.968;2023-04-24T06:22:51;9.30;99.90
6822;DHT22;3449;48.728;8.968;2023-04-24T06:25:18;9.50;99.90
6822;DHT22;3449;48.728;8.968;2023-04-24T06:27:45;9.60;99.90
6822;DHT22;3449;48.728;8.968;2023-04-24T06:30:12;9.80;99.90
6822;DHT22;3449;48.728;8.968;2023-04-24T06:32:41;9.90;99.90
6822;DHT22;3449;48.728;8.968;2023-04-24T06:35:08;10.00;99.90
6822;DHT22;3449;48.728;8.968;2023-04-24T06:37:35;10.20;99.90
6822;DHT22;3449;48.728;8.968;2023-04-24T06:40:03;10.50;99.90
6822;DHT22;3449;48.728;8.968;2023-04-24T06:42:30;10.50;99.90
6822;DHT22;3449;48.728;8.968;2023-04-24T06:44:56;10.80;99.90
6822;DHT22;3449;48.728;8.968;2023-04-24T06:47:23;11.00;99.90
6822;DHT22;3449;48.728;8.968;2023-04-24T06:49:51;11.20;99.90
6822;DHT22;3449;48.728;8.968;2023-04-24T06:52:19;11.20;99.90
6822;DHT22;3449;48.728;8.968;2023-04-24T06:54:46;11.00;99.90
6822;DHT22;3449;48.728;8.968;2023-04-24T06:57:13;10.90;99.90
6822;DHT22;3449;48.728;8.968;2023-04-24T06:59:41;10.80;99.90
6822;DHT22;3449;48.728;8.968;2023-04-24T07:02:09;11.00;99.90
6822;DHT22;3449;48.728;8.968;2023-04-24T07:04:35;10.90;99.90
6822;DHT22;3449;48.728;8.968;2023-04-24T07:07:04;10.60;99.90
6822;DHT22;3449;48.728;8.968;2023-04-24T07:09:32;10.50;99.90
6822;DHT22;3449;48.728;8.968;2023-04-24T07:12:00;10.40;99.90
6822;DHT22;3449;48.728;8.968;2023-04-24T07:14:27;10.20;99.90
6822;DHT22;3449;48.728;8.968;2023-04-24T07:16:54;10.10;99.90
6822;DHT22;3449;48.728;8.968;2023-04-24T07:19:22;10.10;99.90
6822;DHT22;3449;48.728;8.968;2023-04-24T07:21:49;10.10;99.90
6822;DHT22;3449;48.728;8.968;2023-04-24T07:24:17;10.30;99.90
6822;DHT22;3449;48.728;8.968;2023-04-24T07:26:44;10.60;99.90
6822;DHT22;3449;48.728;8.968;2023-04-24T07:29:12;10.90;99.90
6822;DHT22;3449;48.728;8.968;2023-04-24T07:31:39;11.20;99.90
6822;DHT22;3449;48.728;8.968;2023-04-24T07:34:06;11.50;99.90
6822;DHT22;3449;48.728;8.968;2023-04-24T07:36:33;11.30;99.90
6822;DHT22;3449;48.728;8.968;2023-04-24T07:39:00;11.10;99.90
6822;DHT22;3449;48.728;8.968;2023-04-24T07:41:28;11.00;99.90
6822;DHT22;3449;48.728;8.968;2023-04-24T07:43:55;10.90;99.90
6822;DHT22;3449;48.728;8.968;2023-04-24T07:46:22;10.70;99.90
6822;DHT22;3449;48.728;8.968;2023-04-24T07:48:50;10.70;99.90
6822;DHT22;3449;48.728;8.968;2023-04-24T07:51:17;10.70;99.90
6822;DHT22;3449;48.728;8.968;2023-04-24T07:53:44;10.70;99.90
6822;DHT22;3449;48.728;8.968;2023-04-24T07:56:11;10.70;99.90
6822;DHT22;3449;48.728;8.968;2023-04-24T07:58:39;10.80;99.90
6822;DHT22;3449;48.728;8.968;2023-04-24T08:01:06;11.00;99.90
6822;DHT22;3449;48.728;8.968;2023-04-24T08:03:33;11.00;99.90
6822;DHT22;3449;48.728;8.968;2023-04-24T08:06:00;10.90;99.90
6822;DHT22;3449;48.728;8.968;2023-04-24T08:08:27;11.00;99.90
6822;DHT22;3449;48.728;8.968;2023-04-24T08:10:54;11.00;99.90
6822;DHT22;3449;48.728;8.968;2023-04-24T08:13:22;11.20;99.90
6822;DHT22;3449;48.728;8.968;2023-04-24T08:15:50;11.40;99.90
6822;DHT22;3449;48.728;8.968;2023-04-24T08:18:17;11.40;99.90
6822;DHT22;3449;48.728;8.968;2023-04-24T08:20:43;11.50;99.90
6822;DHT22;3449;48.728;8.968;2023-04-24T08:23:11;11.70;99.90
6822;DHT22;3449;48.728;8.968;2023-04-24T08:25:37;11.80;99.90
6822;DHT22;3449;48.728;8.968;2023-04-24T08:28:06;11.80;99.90
6822;DHT22;3449;48.728;8.968;2023-04-24T08:30:33;11.50;99.90
6822;DHT22;3449;48.728;8.968;2023-04-24T08:33:01;11.20;99.90
6822;DHT22;3449;48.728;8.968;2023-04-24T08:35:28;11.00;99.90
6822;DHT22;3449;48.728;8.968;2023-04-24T08:37:55;11.00;99.90
6822;DHT22;3449;48.728;8.968;2023-04-24T08:40:28;11.40;99.90
6822;DHT22;3449;48.728;8.968;2023-04-24T08:42:55;11.60;99.90
6822;DHT22;3449;48.728;8.968;2023-04-24T08:45:23;11.50;99.90
6822;DHT22;3449;48.728;8.968;2023-04-24T08:47:52;11.40;99.90
6822;DHT22;3449;48.728;8.968;2023-04-24T08:50:21;11.50;99.90
6822;DHT22;3449;48.728;8.968;2023-04-24T08:52:50;11.40;99.90
6822;DHT22;3449;48.728;8.968;2023-04-24T08:55:19;11.40;99.90
6822;DHT22;3449;48.728;8.968;2023-04-24T08:57:50;11.70;99.90
6822;DHT22;3449;48.728;8.968;2023-04-24T09:00:18;11.90;99.90
6822;DHT22;3449;48.728;8.968;2023-04-24T09:02:47;11.70;99.90
6822;DHT22;3449;48.728;8.968;2023-04-24T09:05:16;11.30;99.90
6822;DHT22;3449;48.728;8.968;2023-04-24T09:07:47;11.30;99.90
6822;DHT22;3449;48.728;8.968;2023-04-24T09:10:16;11.30;99.90
6822;DHT22;3449;48.728;8.968;2023-04-24T09:12:44;11.20;99.90
6822;DHT22;3449;48.728;8.968;2023-04-24T09:15:11;11.00;99.90
6822;DHT22;3449;48.728;8.968;2023-04-24T09:17:38;11.50;99.90
6822;DHT22;3449;48.728;8.968;2023-04-24T09:20:06;12.20;99.90
6822;DHT22;3449;48.728;8.968;2023-04-24T09:22:34;12.10;99.90
6822;DHT22;3449;48.728;8.968;2023-04-24T09:25:05;12.20;99.90
6822;DHT22;3449;48.728;8.968;2023-04-24T09:27:32;12.70;99.90
6822;DHT22;3449;48.728;8.968;2023-04-24T09:30:00;13.40;99.90
6822;DHT22;3449;48.728;8.968;2023-04-24T09:32:27;13.90;99.90
6822;DHT22;3449;48.728;8.968;2023-04-24T09:35:10;14.10;99.90
6822;DHT22;3449;48.728;8.968;2023-04-24T09:37:38;13.90;99.90
6822;DHT22;3449;48.728;8.968;2023-04-24T09:40:15;13.50;99.90
6822;DHT22;3449;48.728;8.968;2023-04-24T09:42:51;13.00;99.90
6822;DHT22;3449;48.728;8.968;2023-04-24T09:45:18;12.70;99.90
6822;DHT22;3449;48.728;8.968;2023-04-24T09:47:45;12.50;99.90
6822;DHT22;3449;48.728;8.968;2023-04-24T09:50:13;12.50;99.90
6822;DHT22;3449;48.728;8.968;2023-04-24T09:52:41;12.20;99.90
6822;DHT22;3449;48.728;8.968;2023-04-24T09:55:17;11.90;99.90
6822;DHT22;3449;48.728;8.968;2023-04-24T09:57:48;12.20;99.90
6822;DHT22;3449;48.728;8.968;2023-04-24T10:00:24;12.50;99.90
6822;DHT22;3449;48.728;8.968;2023-04-24T10:02:55;12.70;99.90
6822;DHT22;3449;48.728;8.968;2023-04-24T10:05:28;13.20;99.90
6822;DHT22;3449;48.728;8.968;2023-04-24T10:08:01;13.60;99.90
6822;DHT22;3449;48.728;8.968;2023-04-24T10:10:30;14.00;99.90
6822;DHT22;3449;48.728;8.968;2023-04-24T10:12:57;14.00;99.90
6822;DHT22;3449;48.728;8.968;2023-04-24T10:15:26;14.10;99.90
6822;DHT22;3449;48.728;8.968;2023-04-24T10:17:53;14.30;99.90
6822;DHT22;3449;48.728;8.968;2023-04-24T10:20:22;14.60;99.90
6822;DHT22;3449;48.728;8.968;2023-04-24T10:22:50;14.60;99.90
6822;DHT22;3449;48.728;8.968;2023-04-24T10:25:19;14.40;99.90
6822;DHT22;3449;48.728;8.968;2023-04-24T10:27:49;14.00;99.90
6822;DHT22;3449;48.728;8.968;2023-04-24T10:30:16;13.70;99.90
6822;DHT22;3449;48.728;8.968;2023-04-24T10:32:43;13.80;99.90
6822;DHT22;3449;48.728;8.968;2023-04-24T10:35:12;14.30;99.90
6822;DHT22;3449;48.728;8.968;2023-04-24T10:37:42;14.00;99.90
6822;DHT22;3449;48.728;8.968;2023-04-24T10:40:10;13.90;99.90
6822;DHT22;3449;48.728;8.968;2023-04-24T10:42:40;13.80;99.90
6822;DHT22;3449;48.728;8.968;2023-04-24T10:45:17;13.70;99.90
6822;DHT22;3449;48.728;8.968;2023-04-24T10:47:52;13.50;99.90
6822;DHT22;3449;48.728;8.968;2023-04-24T10:50:19;13.20;99.90
6822;DHT22;3449;48.728;8.968;2023-04-24T10:52:46;12.90;99.90
6822;DHT22;3449;48.728;8.968;2023-04-24T10:55:14;12.70;99.90
6822;DHT22;3449;48.728;8.968;2023-04-24T10:58:01;12.20;99.90
6822;DHT22;3449;48.728;8.968;2023-04-24T11:00:30;11.90;99.90
6822;DHT22;3449;48.728;8.968;2023-04-24T11:02:57;11.60;99.90
6822;DHT22;3449;48.728;8.968;2023-04-24T11:05:51;11.70;99.90
6822;DHT22;3449;48.728;8.968;2023-04-24T11:08:29;11.60;99.90
6822;DHT22;3449;48.728;8.968;2023-04-24T11:10:59;11.60;99.90
6822;DHT22;3449;48.728;8.968;2023-04-24T11:16:25;11.60;99.90
6822;DHT22;3449;48.728;8.968;2023-04-24T11:19:00;12.00;99.90
6822;DHT22;3449;48.728;8.968;2023-04-24T11:21:31;11.90;99.90
6822;DHT22;3449;48.728;8.968;2023-04-24T11:23:58;11.90;99.90
6822;DHT22;3449;48.728;8.968;2023-04-24T11:26:25;11.90;99.90
6822;DHT22;3449;48.728;8.968;2023-04-24T11:29:06;11.80;99.90
6822;DHT22;3449;48.728;8.968;2023-04-24T11:31:36;11.60;99.90
6822;DHT22;3449;48.728;8.968;2023-04-24T11:34:08;11.40;99.90
6822;DHT22;3449;48.728;8.968;2023-04-24T11:36:35;11.30;99.90
6822;DHT22;3449;48.728;8.968;2023-04-24T11:39:03;11.10;99.90
6822;DHT22;3449;48.728;8.968;2023-04-24T11:41:30;11.30;99.90
6822;DHT22;3449;48.728;8.968;2023-04-24T11:43:57;11.90;99.90
6822;DHT22;3449;48.728;8.968;2023-04-24T11:46:27;12.60;99.90
6822;DHT22;3449;48.728;8.968;2023-04-24T11:48:56;13.10;99.90
6822;DHT22;3449;48.728;8.968;2023-04-24T11:51:23;13.30;99.90
6822;DHT22;3449;48.728;8.968;2023-04-24T11:53:50;13.20;99.90
6822;DHT22;3449;48.728;8.968;2023-04-24T11:56:18;13.00;99.90
6822;DHT22;3449;48.728;8.968;2023-04-24T11:58:45;12.80;99.90
6822;DHT22;3449;48.728;8.968;2023-04-24T12:01:13;12.30;99.90
6822;DHT22;3449;48.728;8.968;2023-04-24T12:03:40;12.10;99.90
6822;DHT22;3449;48.728;8.968;2023-04-24T12:06:11;11.90;99.90
6822;DHT22;3449;48.728;8.968;2023-04-24T12:08:39;11.70;99.90
6822;DHT22;3449;48.728;8.968;2023-04-24T12:11:07;11.60;99.90
6822;DHT22;3449;48.728;8.968;2023-04-24T12:13:34;11.60;99.90
6822;DHT22;3449;48.728;8.968;2023-04-24T12:16:03;11.70;99.90
6822;DHT22;3449;48.728;8.968;2023-04-24T12:18:31;11.80;99.90
6822;DHT22;3449;48.728;8.968;2023-04-24T12:21:17;11.90;99.90
6822;DHT22;3449;48.728;8.968;2023-04-24T12:23:44;11.60;99.90
6822;DHT22;3449;48.728;8.968;2023-04-24T12:26:12;11.70;99.90
6822;DHT22;3449;48.728;8.968;2023-04-24T12:28:39;11.70;99.90
6822;DHT22;3449;48.728;8.968;2023-04-24T12:31:06;11.80;99.90
6822;DHT22;3449;48.728;8.968;2023-04-24T12:33:35;11.90;99.90
6822;DHT22;3449;48.728;8.968;2023-04-24T12:36:02;11.90;99.90
6822;DHT22;3449;48.728;8.968;2023-04-24T12:38:30;11.70;99.90
6822;DHT22;3449;48.728;8.968;2023-04-24T12:41:06;11.20;99.90
6822;DHT22;3449;48.728;8.968;2023-04-24T12:43:33;10.90;99.90
6822;DHT22;3449;48.728;8.968;2023-04-24T12:46:00;10.80;99.90
6822;DHT22;3449;48.728;8.968;2023-04-24T12:48:28;10.50;99.90
6822;DHT22;3449;48.728;8.968;2023-04-24T12:50:56;10.60;99.90
6822;DHT22;3449;48.728;8.968;2023-04-24T12:53:26;10.60;99.90
6822;DHT22;3449;48.728;8.968;2023-04-24T12:55:56;10.40;99.90
6822;DHT22;3449;48.728;8.968;2023-04-24T12:58:23;10.40;99.90
6822;DHT22;3449;48.728;8.968;2023-04-24T13:00:50;10.50;99.90
6822;DHT22;3449;48.728;8.968;2023-04-24T13:03:18;10.40;99.90
6822;DHT22;3449;48.728;8.968;2023-04-24T13:05:45;10.40;99.90
6822;DHT22;3449;48.728;8.968;2023-04-24T13:08:12;10.60;99.90
6822;DHT22;3449;48.728;8.968;2023-04-24T13:10:39;10.80;99.90
6822;DHT22;3449;48.728;8.968;2023-04-24T13:13:08;11.00;99.90
6822;DHT22;3449;48.728;8.968;2023-04-24T13:15:35;11.30;99.90
6822;DHT22;3449;48.728;8.968;2023-04-24T13:18:02;11.30;99.90
6822;DHT22;3449;48.728;8.968;2023-04-24T13:20:29;11.30;99.90
6822;DHT22;3449;48.728;8.968;2023-04-24T13:22:56;11.10;99.90
6822;DHT22;3449;48.728;8.968;2023-04-24T13:25:23;10.80;99.90
6822;DHT22;3449;48.728;8.968;2023-04-24T13:27:50;10.70;99.90
6822;DHT22;3449;48.728;8.968;2023-04-24T13:30:19;10.60;99.90
6822;DHT22;3449;48.728;8.968;2023-04-24T13:32:46;10.50;99.90
6822;DHT22;3449;48.728;8.968;2023-04-24T13:35:12;10.40;99.90
6822;DHT22;3449;48.728;8.968;2023-04-24T13:37:39;10.30;99.90
6822;DHT22;3449;48.728;8.968;2023-04-24T13:40:07;10.30;99.90
6822;DHT22;3449;48.728;8.968;2023-04-24T13:42:34;10.40;99.90
6822;DHT22;3449;48.728;8.968;2023-04-24T13:45:01;10.80;99.90
6822;DHT22;3449;48.728;8.968;2023-04-24T13:47:30;11.30;99.90
6822;DHT22;3449;48.728;8.968;2023-04-24T13:49:57;12.00;99.90
6822;DHT22;3449;48.728;8.968;2023-04-24T13:52:24;12.30;99.90
6822;DHT22;3449;48.728;8.968;2023-04-24T13:54:50;12.10;99.90
6822;DHT22;3449;48.728;8.968;2023-04-24T13:57:17;11.80;99.90
6822;DHT22;3449;48.728;8.968;2023-04-24T13:59:45;11.50;99.90
6822;DHT22;3449;48.728;8.968;2023-04-24T14:02:12;11.00;99.90
6822;DHT22;3449;48.728;8.968;2023-04-24T14:04:40;10.70;99.90
6822;DHT22;3449;48.728;8.968;2023-04-24T14:07:07;10.40;99.90
6822;DHT22;3449;48.728;8.968;2023-04-24T14:09:34;10.10;99.90
6822;DHT22;3449;48.728;8.968;2023-04-24T14:12:01;9.90;99.90
6822;DHT22;3449;48.728;8.968;2023-04-24T14:14:29;9.70;99.90
6822;DHT22;3449;48.728;8.968;2023-04-24T14:16:56;9.70;99.90
6822;DHT22;3449;48.728;8.968;2023-04-24T14:19:23;9.90;99.90
6822;DHT22;3449;48.728;8.968;2023-04-24T14:21:52;10.60;99.90
6822;DHT22;3449;48.728;8.968;2023-04-24T14:24:19;11.20;99.90
6822;DHT22;3449;48.728;8.968;2023-04-24T14:26:46;11.30;99.90
6822;DHT22;3449;48.728;8.968;2023-04-24T14:29:12;11.30;99.90
6822;DHT22;3449;48.728;8.968;2023-04-24T14:31:39;11.00;99.90
6822;DHT22;3449;48.728;8.968;2023-04-24T14:34:06;11.00;99.90
6822;DHT22;3449;48.728;8.968;2023-04-24T14:36:33;11.00;99.90
6822;DHT22;3449;48.728;8.968;2023-04-24T14:39:02;11.00;99.90
6822;DHT22;3449;48.728;8.968;2023-04-24T14:41:31;11.20;99.90
6822;DHT22;3449;48.728;8.968;2023-04-24T14:44:01;11.50;99.90
6822;DHT22;3449;48.728;8.968;2023-04-24T14:46:28;11.60;99.90
6822;DHT22;3449;48.728;8.968;2023-04-24T14:48:55;12.20;99.90
6822;DHT22;3449;48.728;8.968;2023-04-24T14:51:22;12.70;99.90
6822;DHT22;3449;48.728;8.968;2023-04-24T14:53:49;12.80;99.90
6822;DHT22;3449;48.728;8.968;2023-04-24T14:56:18;12.30;99.90
6822;DHT22;3449;48.728;8.968;2023-04-24T14:58:45;11.90;99.90
6822;DHT22;3449;48.728;8.968;2023-04-24T15:01:12;11.50;99.90
6822;DHT22;3449;48.728;8.968;2023-04-24T15:03:39;11.20;99.90
6822;DHT22;3449;48.728;8.968;2023-04-24T15:06:06;11.00;99.90
6822;DHT22;3449;48.728;8.968;2023-04-24T15:08:33;10.90;99.90
6822;DHT22;3449;48.728;8.968;2023-04-24T15:11:00;10.80;99.90
6822;DHT22;3449;48.728;8.968;2023-04-24T15:13:28;10.60;99.90
6822;DHT22;3449;48.728;8.968;2023-04-24T15:15:55;10.60;99.90
6822;DHT22;3449;48.728;8.968;2023-04-24T15:18:22;10.60;99.90
6822;DHT22;3449;48.728;8.968;2023-04-24T15:20:49;10.60;99.90
6822;DHT22;3449;48.728;8.968;2023-04-24T15:23:15;10.60;99.90
6822;DHT22;3449;48.728;8.968;2023-04-24T15:25:42;10.50;99.90
6822;DHT22;3449;48.728;8.968;2023-04-24T15:28:09;10.50;99.90
6822;DHT22;3449;48.728;8.968;2023-04-24T15:30:38;10.50;99.90
6822;DHT22;3449;48.728;8.968;2023-04-24T15:33:04;10.60;99.90
6822;DHT22;3449;48.728;8.968;2023-04-24T15:35:31;10.70;99.90
6822;DHT22;3449;48.728;8.968;2023-04-24T15:37:58;10.80;99.90
6822;DHT22;3449;48.728;8.968;2023-04-24T15:40:25;10.70;99.90
6822;DHT22;3449;48.728;8.968;2023-04-24T15:42:53;10.70;99.90
6822;DHT22;3449;48.728;8.968;2023-04-24T15:45:20;10.70;99.90
6822;DHT22;3449;48.728;8.968;2023-04-24T15:47:48;10.80;99.90
6822;DHT22;3449;48.728;8.968;2023-04-24T15:50:16;11.30;99.90
6822;DHT22;3449;48.728;8.968;2023-04-24T15:52:44;12.20;99.90
6822;DHT22;3449;48.728;8.968;2023-04-24T15:55:11;13.10;99.90
6822;DHT22;3449;48.728;8.968;2023-04-24T15:57:38;14.20;99.90
6822;DHT22;3449;48.728;8.968;2023-04-24T16:00:06;14.80;99.90
6822;DHT22;3449;48.728;8.968;2023-04-24T16:02:34;14.60;99.90
6822;DHT22;3449;48.728;8.968;2023-04-24T16:05:02;13.90;99.90
6822;DHT22;3449;48.728;8.968;2023-04-24T16:07:30;13.40;99.90
6822;DHT22;3449;48.728;8.968;2023-04-24T16:09:57;13.00;99.90
6822;DHT22;3449;48.728;8.968;2023-04-24T16:12:24;12.40;99.90
6822;DHT22;3449;48.728;8.968;2023-04-24T16:14:52;12.00;99.90